Time;durP1;ratioP1;P1;durP2;ratioP2;P2;SDS_P1;SDS_P2;PMS_P1;PMS_P2;Temp;Humidity;BMP_temperature;BMP_pressure;BME280_temperature;BME280_humidity;BME280_pressure;Samples;Min_cycle;Max_cycle;Signal;HPM_P1;HPM_P2
2021/06/02 00:01:58;;;;;;;8.07;7.00;;;9.60;99.90;;;;;;5033322;28;20045;-86
2021/06/02 00:04:29;;;;;;;9.43;6.60;;;9.60;99.90;;;;;;5033047;28;20051;-88
2021/06/02 00:07:05;;;;;;;8.15;6.97;;;9.60;99.90;;;;;;5032884;28;20508;-88
2021/06/02 00:09:33;;;;;;;9.70;7.00;;;9.70;99.90;;;;;;5032915;28;20100;-87
2021/06/02 00:12:04;;;;;;;9.38;6.90;;;9.70;99.90;;;;;;5015711;28;20402;-88
2021/06/02 00:14:32;;;;;;;8.38;7.10;;;9.70;99.90;;;;;;5015277;28;20413;-87
2021/06/02 00:17:00;;;;;;;8.50;7.07;;;9.70;99.90;;;;;;5033453;28;20167;-88
2021/06/02 00:19:27;;;;;;;9.13;6.63;;;9.70;99.90;;;;;;5039255;28;20077;-87
2021/06/02 00:21:56;;;;;;;11.55;7.80;;;9.70;99.90;;;;;;5033746;28;20449;-88
2021/06/02 00:24:24;;;;;;;7.22;6.47;;;9.60;99.90;;;;;;5016187;28;20049;-87
2021/06/02 00:26:53;;;;;;;8.30;7.20;;;9.60;99.90;;;;;;5032944;28;20049;-88
2021/06/02 00:29:24;;;;;;;8.95;6.78;;;9.60;99.90;;;;;;5033655;28;20203;-87
2021/06/02 00:31:52;;;;;;;11.57;7.50;;;9.80;99.90;;;;;;5033505;28;20144;-88
2021/06/02 00:34:20;;;;;;;10.75;7.35;;;9.70;99.90;;;;;;5033582;28;20056;-87
2021/06/02 00:36:48;;;;;;;9.10;6.88;;;9.70;99.90;;;;;;5016191;28;20046;-87
2021/06/02 00:39:16;;;;;;;7.90;7.10;;;9.70;99.90;;;;;;5015924;28;20533;-87
2021/06/02 00:41:46;;;;;;;8.05;6.68;;;9.80;99.90;;;;;;5033431;28;20037;-87
2021/06/02 00:44:15;;;;;;;7.13;6.43;;;9.90;99.90;;;;;;5016121;28;20056;-87
2021/06/02 00:46:44;;;;;;;7.47;6.60;;;9.90;99.90;;;;;;5033084;28;20144;-87
2021/06/02 00:49:14;;;;;;;8.25;6.43;;;10.00;99.90;;;;;;5033478;28;20476;-87
2021/06/02 00:51:40;;;;;;;7.68;6.65;;;10.10;99.90;;;;;;5033109;28;20056;-87
2021/06/02 00:54:08;;;;;;;7.75;6.97;;;10.10;99.90;;;;;;5015880;28;20081;-87
2021/06/02 00:56:45;;;;;;;10.40;6.70;;;10.10;99.90;;;;;;5015347;28;20468;-87
2021/06/02 00:59:16;;;;;;;15.95;6.97;;;10.10;99.90;;;;;;5016790;28;20095;-87
2021/06/02 01:01:43;;;;;;;7.15;6.22;;;10.00;99.90;;;;;;5019114;28;20598;-87
2021/06/02 01:04:10;;;;;;;9.35;6.53;;;10.00;99.90;;;;;;5019656;28;20049;-87
2021/06/02 01:06:43;;;;;;;8.55;6.22;;;10.00;99.90;;;;;;5036123;28;20478;-87
2021/06/02 01:09:09;;;;;;;8.25;7.30;;;9.90;99.90;;;;;;5035200;28;20049;-87
2021/06/02 01:11:39;;;;;;;8.18;6.78;;;9.90;99.90;;;;;;5036463;28;20437;-87
2021/06/02 01:14:06;;;;;;;6.93;6.22;;;9.80;99.90;;;;;;5019375;28;20085;-87
2021/06/02 01:16:34;;;;;;;7.85;6.72;;;9.80;99.90;;;;;;5036158;28;20469;-87
2021/06/02 01:19:02;;;;;;;8.55;6.80;;;9.80;99.90;;;;;;5036615;28;20053;-87
2021/06/02 01:21:30;;;;;;;7.30;6.60;;;9.70;99.90;;;;;;5018855;28;20054;-87
2021/06/02 01:24:00;;;;;;;8.07;7.28;;;9.70;99.90;;;;;;5019235;28;20046;-88
2021/06/02 01:26:30;;;;;;;9.20;7.25;;;9.70;99.90;;;;;;5018939;28;20049;-87
2021/06/02 01:28:57;;;;;;;9.80;7.10;;;9.60;99.90;;;;;;5018489;28;20144;-87
2021/06/02 01:31:40;;;;;;;7.38;6.75;;;9.60;99.90;;;;;;5036361;28;20049;-87
2021/06/02 01:34:36;;;;;;;8.05;7.22;;;9.60;99.90;;;;;;5019033;28;20050;-87
2021/06/02 01:37:15;;;;;;;7.43;6.72;;;9.60;99.90;;;;;;5037180;28;20053;-87
2021/06/02 01:39:59;;;;;;;8.48;7.38;;;9.60;99.90;;;;;;5036188;28;20057;-87
2021/06/02 01:42:37;;;;;;;7.93;7.13;;;9.60;99.90;;;;;;5018589;28;20508;-87
2021/06/02 01:45:09;;;;;;;9.27;6.70;;;9.60;99.90;;;;;;5018293;28;20391;-87
2021/06/02 01:48:22;;;;;;;11.07;7.17;;;9.50;99.90;;;;;;5036065;28;20046;-87
2021/06/02 01:51:33;;;;;;;9.65;7.30;;;9.60;99.90;;;;;;5035894;28;20056;-87
2021/06/02 01:54:35;;;;;;;7.78;6.82;;;9.60;99.90;;;;;;5017943;28;20068;-86
2021/06/02 02:01:12;;;;;;;8.90;7.30;;;9.30;99.90;;;;;;5034884;28;20511;-86
2021/06/02 02:04:00;;;;;;;9.50;6.80;;;9.20;99.90;;;;;;5035587;28;20045;-87
2021/06/02 02:07:06;;;;;;;9.15;7.65;;;9.10;99.90;;;;;;5018341;28;20387;-85
2021/06/02 02:10:15;;;;;;;11.77;8.73;;;9.00;99.90;;;;;;5017599;28;20059;-86
2021/06/02 02:13:16;;;;;;;12.82;8.50;;;9.10;99.90;;;;;;5012319;28;20053;-85
2021/06/02 02:16:07;;;;;;;9.82;8.02;;;9.00;99.90;;;;;;5017614;28;20390;-86
2021/06/02 02:19:18;;;;;;;13.13;8.38;;;8.90;99.90;;;;;;5017426;28;20045;-85
2021/06/02 02:21:56;;;;;;;9.00;7.45;;;9.10;99.90;;;;;;5017651;28;20526;-85
2021/06/02 02:24:47;;;;;;;12.32;8.38;;;8.90;99.90;;;;;;5035075;28;20050;-86
2021/06/02 02:27:32;;;;;;;9.77;8.63;;;8.80;99.90;;;;;;5017604;28;20053;-87
2021/06/02 02:30:02;;;;;;;10.63;8.77;;;8.90;99.90;;;;;;5035191;28;20049;-87
2021/06/02 02:32:43;;;;;;;11.57;9.20;;;8.90;99.90;;;;;;5017384;28;20042;-87
2021/06/02 02:35:38;;;;;;;9.75;8.75;;;8.90;99.90;;;;;;5017300;28;20494;-87
2021/06/02 02:38:30;;;;;;;12.73;8.60;;;8.90;99.90;;;;;;5034761;28;20049;-87
2021/06/02 02:41:35;;;;;;;11.75;8.38;;;8.90;99.90;;;;;;5016995;28;20088;-85
2021/06/02 02:44:32;;;;;;;10.20;8.55;;;8.80;99.90;;;;;;5017523;28;20051;-87
2021/06/02 02:47:18;;;;;;;10.35;7.50;;;8.90;99.90;;;;;;5016937;28;20063;-87
2021/06/02 02:50:29;;;;;;;11.55;7.88;;;8.90;99.90;;;;;;5016967;28;20409;-86
2021/06/02 02:53:04;;;;;;;9.23;7.90;;;9.00;99.90;;;;;;4993461;28;20046;-86
2021/06/02 02:55:33;;;;;;;14.10;8.32;;;9.10;99.90;;;;;;4991595;28;20125;-87
2021/06/02 02:58:25;;;;;;;11.57;8.15;;;9.10;99.90;;;;;;5027187;28;20053;-87
2021/06/02 03:01:12;;;;;;;10.80;8.10;;;9.10;99.90;;;;;;5016786;28;20064;-87
2021/06/02 03:04:20;;;;;;;8.65;7.75;;;9.00;99.90;;;;;;5017027;28;20049;-87
2021/06/02 03:06:56;;;;;;;13.23;7.30;;;8.90;99.90;;;;;;5016385;28;20476;-87
2021/06/02 03:09:44;;;;;;;8.55;7.75;;;8.70;99.90;;;;;;5017034;28;20132;-88
2021/06/02 03:12:40;;;;;;;10.23;8.27;;;8.70;99.90;;;;;;5016899;28;20056;-87
2021/06/02 03:15:28;;;;;;;8.30;7.50;;;8.70;99.90;;;;;;5034366;28;20417;-88
2021/06/02 03:18:01;;;;;;;8.73;7.82;;;8.60;99.90;;;;;;5016960;28;20080;-87
2021/06/02 03:20:34;;;;;;;9.35;7.65;;;8.60;99.90;;;;;;5016583;28;20045;-88
2021/06/02 03:23:01;;;;;;;9.63;8.63;;;8.50;99.90;;;;;;5033389;28;20417;-87
2021/06/02 03:25:46;;;;;;;13.18;9.35;;;8.50;99.90;;;;;;5016306;28;20049;-88
2021/06/02 03:28:48;;;;;;;10.73;9.00;;;8.60;99.90;;;;;;5015959;28;20042;-87
2021/06/02 03:31:39;;;;;;;13.23;8.77;;;8.60;99.90;;;;;;5034178;28;20417;-87
2021/06/02 03:34:28;;;;;;;11.82;9.13;;;8.60;99.90;;;;;;5016755;28;20518;-87
2021/06/02 03:37:13;;;;;;;11.55;8.45;;;8.60;99.90;;;;;;5016224;28;20063;-87
2021/06/02 03:39:49;;;;;;;12.23;9.23;;;8.60;99.90;;;;;;5033691;28;20045;-87
2021/06/02 03:42:47;;;;;;;11.50;8.55;;;8.60;99.90;;;;;;5016281;28;20502;-87
2021/06/02 03:45:43;;;;;;;10.48;9.48;;;8.70;99.90;;;;;;5011254;28;20064;-87
2021/06/02 03:48:30;;;;;;;10.57;8.50;;;8.80;99.90;;;;;;5016400;28;20045;-86
2021/06/02 03:51:24;;;;;;;10.45;8.43;;;8.90;99.90;;;;;;5016063;28;20049;-85
2021/06/02 03:54:12;;;;;;;9.00;8.00;;;8.80;99.90;;;;;;5016306;28;20050;-87
2021/06/02 03:57:17;;;;;;;15.05;8.48;;;8.90;99.90;;;;;;5033204;28;20062;-87
2021/06/02 04:00:04;;;;;;;9.80;7.50;;;8.90;99.90;;;;;;5032531;28;20049;-85
2021/06/02 04:02:51;;;;;;;11.45;7.63;;;8.90;99.90;;;;;;5032232;28;20049;-87
2021/06/02 04:05:38;;;;;;;12.32;8.20;;;9.10;99.90;;;;;;5033090;28;20053;-87
2021/06/02 04:08:13;;;;;;;8.55;7.25;;;9.10;99.90;;;;;;5033566;28;20140;-87
2021/06/02 04:11:14;;;;;;;8.50;7.28;;;9.30;99.90;;;;;;5016735;28;20041;-87
2021/06/02 04:13:55;;;;;;;8.10;7.30;;;9.30;99.90;;;;;;5024517;28;20578;-85
2021/06/02 04:16:37;;;;;;;9.55;7.05;;;9.30;99.90;;;;;;5033233;28;20049;-87
2021/06/02 04:19:06;;;;;;;9.63;7.40;;;9.20;99.90;;;;;;5015994;28;20045;-85
2021/06/02 04:21:39;;;;;;;9.90;7.40;;;9.20;99.90;;;;;;5015863;28;20107;-87
2021/06/02 04:24:13;;;;;;;9.95;8.23;;;9.10;99.90;;;;;;5016730;28;20041;-87
2021/06/02 04:26:40;;;;;;;10.45;7.20;;;9.20;99.90;;;;;;5015443;28;20051;-85
2021/06/02 04:29:10;;;;;;;8.35;7.50;;;9.10;99.90;;;;;;5033165;28;20512;-85
2021/06/02 04:31:48;;;;;;;11.52;8.57;;;9.00;99.90;;;;;;5015682;28;20053;-86
2021/06/02 04:34:16;;;;;;;8.35;7.30;;;9.00;99.90;;;;;;5018591;28;20046;-86
2021/06/02 04:36:44;;;;;;;10.45;8.52;;;9.10;99.90;;;;;;5019162;28;20049;-86
2021/06/02 04:39:11;;;;;;;10.52;7.72;;;9.10;99.90;;;;;;5019676;28;20056;-86
2021/06/02 04:41:40;;;;;;;8.57;7.45;;;9.20;99.90;;;;;;5019140;28;20413;-85
2021/06/02 04:44:12;;;;;;;9.38;6.97;;;9.40;99.90;;;;;;5036989;28;20041;-85
2021/06/02 04:46:41;;;;;;;11.23;7.32;;;9.50;99.90;;;;;;5019314;28;20056;-85
2021/06/02 04:49:07;;;;;;;12.93;7.10;;;9.70;99.90;;;;;;5019476;28;20401;-85
2021/06/02 04:52:02;;;;;;;11.18;6.65;;;10.10;99.90;;;;;;5036508;28;20052;-85
2021/06/02 04:54:53;;;;;;;7.13;6.10;;;10.50;99.90;;;;;;5036703;28;20494;-86
2021/06/02 04:58:14;;;;;;;9.15;5.90;;;10.90;99.90;;;;;;5019471;28;20055;-86
2021/06/02 05:01:09;;;;;;;15.18;6.57;;;11.30;99.90;;;;;;4984251;28;20578;-86
2021/06/02 05:03:51;;;;;;;6.30;5.30;;;11.60;99.90;;;;;;5019046;28;20050;-85
2021/06/02 05:06:54;;;;;;;7.40;6.03;;;11.90;99.90;;;;;;5018585;28;20051;-83
2021/06/02 05:10:04;;;;;;;6.10;5.28;;;12.10;99.90;;;;;;5036393;28;20041;-87
2021/06/02 05:13:02;;;;;;;7.82;4.47;;;12.50;99.90;;;;;;5000473;28;20049;-86
2021/06/02 05:16:04;;;;;;;9.85;5.40;;;12.80;99.90;;;;;;5018881;28;20073;-86
2021/06/02 05:18:42;;;;;;;5.25;4.72;;;13.30;99.90;;;;;;5036248;28;20052;-87
2021/06/02 05:24:46;;;;;;;7.53;4.40;;;13.90;99.90;;;;;;5036324;28;20405;-87
2021/06/02 05:27:40;;;;;;;6.72;5.00;;;14.30;99.90;;;;;;5035073;28;20132;-86
2021/06/02 05:30:44;;;;;;;8.23;5.10;;;14.80;99.90;;;;;;5042527;28;20088;-86
2021/06/02 05:34:00;;;;;;;11.68;5.03;;;15.00;99.90;;;;;;5018536;28;20132;-86
2021/06/02 05:37:01;;;;;;;16.30;4.80;;;15.40;99.90;;;;;;5018527;28;20532;-86
2021/06/02 05:39:52;;;;;;;13.45;5.60;;;15.80;99.90;;;;;;5035893;28;20126;-85
2021/06/02 05:42:39;;;;;;;15.43;6.20;;;16.40;99.90;;;;;;5035941;28;20049;-85
2021/06/02 05:45:44;;;;;;;16.83;5.18;;;16.60;99.90;;;;;;5017507;28;20050;-86
2021/06/02 05:48:29;;;;;;;9.25;4.82;;;17.30;99.90;;;;;;5018633;28;20046;-86
2021/06/02 05:51:17;;;;;;;14.88;5.35;;;17.70;99.90;;;;;;5035794;28;20079;-87
2021/06/02 05:54:22;;;;;;;7.35;4.13;;;18.00;99.90;;;;;;5035539;28;20053;-87
2021/06/02 05:57:10;;;;;;;8.60;4.15;;;18.10;99.90;;;;;;5017886;28;20065;-87
2021/06/02 06:00:18;;;;;;;4.40;3.88;;;18.50;99.90;;;;;;5035452;28;20140;-88
2021/06/02 06:03:21;;;;;;;10.23;4.10;;;19.20;99.90;;;;;;5035219;28;20049;-86
2021/06/02 06:06:03;;;;;;;8.25;4.47;;;20.40;99.90;;;;;;5017891;28;20136;-88
2021/06/02 06:09:09;;;;;;;10.65;4.20;;;21.40;99.90;;;;;;5018205;28;20053;-87
2021/06/02 06:12:00;;;;;;;7.97;4.05;;;22.30;99.90;;;;;;5018004;28;20050;-88
2021/06/02 06:14:47;;;;;;;7.55;3.97;;;24.00;96.10;;;;;;5035629;28;20100;-88
2021/06/02 06:17:29;;;;;;;8.48;3.35;;;24.50;93.30;;;;;;5018064;28;20076;-87
2021/06/02 06:20:33;;;;;;;13.93;5.32;;;24.80;90.00;;;;;;5017613;28;20053;-88
2021/06/02 06:23:26;;;;;;;19.23;5.47;;;24.40;90.20;;;;;;5017930;28;20081;-88
2021/06/02 06:26:22;;;;;;;20.35;5.35;;;24.70;87.80;;;;;;5017345;28;20057;-87
2021/06/02 06:29:08;;;;;;;17.50;4.28;;;25.20;87.50;;;;;;5034858;28;20125;-87
2021/06/02 06:31:39;;;;;;;19.48;4.70;;;25.90;82.80;;;;;;5017616;28;20413;-88
2021/06/02 06:34:10;;;;;;;8.35;3.47;;;25.70;82.60;;;;;;5010779;28;20045;-87
2021/06/02 06:36:38;;;;;;;10.10;3.85;;;26.60;80.20;;;;;;5000314;28;20050;-87
2021/06/02 06:39:18;;;;;;;7.30;3.78;;;27.60;75.50;;;;;;4997528;28;20052;-87
2021/06/02 06:41:48;;;;;;;11.30;3.70;;;28.40;71.30;;;;;;5014876;28;20060;-88
2021/06/02 06:44:17;;;;;;;6.68;3.17;;;28.20;70.10;;;;;;4998040;28;20089;-88
2021/06/02 06:46:46;;;;;;;4.85;2.75;;;28.70;68.00;;;;;;4997609;28;20096;-88
2021/06/02 06:49:15;;;;;;;3.22;2.70;;;29.60;64.40;;;;;;5002607;28;20121;-88
2021/06/02 06:51:44;;;;;;;15.20;4.18;;;30.70;61.60;;;;;;5033151;28;20125;-88
2021/06/02 06:54:13;;;;;;;12.05;3.85;;;30.70;59.80;;;;;;5017143;28;20055;-90
2021/06/02 06:56:41;;;;;;;11.93;4.25;;;30.40;59.00;;;;;;5032806;28;20144;-89
2021/06/02 06:59:08;;;;;;;8.98;3.85;;;30.20;59.90;;;;;;5017088;28;20417;-88
2021/06/02 07:01:37;;;;;;;11.52;4.18;;;30.80;58.50;;;;;;5013757;28;20046;-88
2021/06/02 07:04:07;;;;;;;10.02;3.90;;;31.50;57.80;;;;;;5000704;28;20049;-89
2021/06/02 07:06:37;;;;;;;15.10;4.20;;;31.60;56.40;;;;;;4996843;28;20050;-88
2021/06/02 07:09:07;;;;;;;8.77;3.60;;;31.40;56.10;;;;;;5014461;28;20422;-89
2021/06/02 07:11:42;;;;;;;8.35;3.33;;;31.80;56.80;;;;;;5014376;28;20057;-90
2021/06/02 07:14:11;;;;;;;8.55;3.65;;;32.30;54.30;;;;;;4997045;28;20061;-89
2021/06/02 07:16:41;;;;;;;13.25;3.20;;;32.30;55.30;;;;;;4996730;28;20092;-89
2021/06/02 07:19:09;;;;;;;6.07;2.63;;;33.30;54.70;;;;;;4997021;28;20082;-89
2021/06/02 07:21:40;;;;;;;4.57;2.35;;;33.80;53.90;;;;;;4996241;28;20395;-89
2021/06/02 07:24:10;;;;;;;6.50;3.20;;;35.50;52.20;;;;;;4997148;28;20061;-89
2021/06/02 07:26:39;;;;;;;8.82;2.70;;;35.80;49.50;;;;;;4996560;28;20129;-89
2021/06/02 07:29:23;;;;;;;5.88;1.92;;;34.70;46.60;;;;;;4999348;28;20129;-89
2021/06/02 07:31:50;;;;;;;4.38;2.03;;;35.20;46.30;;;;;;5014169;28;20077;-93
2021/06/02 07:34:17;;;;;;;7.60;2.22;;;35.90;42.80;;;;;;4996673;28;20049;-91
2021/06/02 07:36:43;;;;;;;8.95;2.25;;;34.10;42.90;;;;;;5013741;28;20085;-89
2021/06/02 07:39:10;;;;;;;3.10;1.15;;;34.20;43.60;;;;;;4996533;28;20067;-88
2021/06/02 07:41:37;;;;;;;8.25;1.65;;;36.40;43.10;;;;;;4996717;28;20465;-88
2021/06/02 07:44:04;;;;;;;4.97;1.15;;;37.00;41.40;;;;;;4996961;28;20077;-88
2021/06/02 07:46:35;;;;;;;1.52;1.00;;;36.80;38.40;;;;;;4996376;28;20132;-88
2021/06/02 07:49:06;;;;;;;12.45;1.55;;;35.20;38.90;;;;;;5016171;28;20049;-88
2021/06/02 07:51:34;;;;;;;3.75;1.67;;;33.40;39.70;;;;;;5016101;28;20051;-88
2021/06/02 07:54:01;;;;;;;3.08;1.33;;;33.50;41.40;;;;;;5016341;28;20052;-89
2021/06/02 07:56:28;;;;;;;2.15;1.00;;;34.10;41.90;;;;;;5032877;28;20144;-88
2021/06/02 07:58:54;;;;;;;19.95;3.78;;;35.60;40.80;;;;;;5015735;28;20049;-90
2021/06/02 08:01:21;;;;;;;9.50;2.65;;;34.40;39.00;;;;;;5017206;28;20049;-89
2021/06/02 08:03:48;;;;;;;5.28;1.88;;;33.20;39.70;;;;;;5034069;28;20057;-88
2021/06/02 08:06:15;;;;;;;1.75;1.23;;;33.90;40.50;;;;;;5017591;28;20046;-86
2021/06/02 08:08:41;;;;;;;3.90;1.20;;;34.40;40.20;;;;;;5037338;28;20052;-92
2021/06/02 08:11:08;;;;;;;27.70;4.85;;;33.50;39.90;;;;;;5018120;28;20144;-89
2021/06/02 08:13:35;;;;;;;6.72;1.80;;;33.30;39.60;;;;;;5016745;28;20045;-88
2021/06/02 08:16:03;;;;;;;1.88;1.17;;;34.20;39.40;;;;;;5016054;28;20500;-88
2021/06/02 08:18:30;;;;;;;2.92;1.20;;;34.30;40.40;;;;;;5016066;28;20048;-89
2021/06/02 08:20:56;;;;;;;1.88;1.40;;;32.30;39.60;;;;;;5017597;28;20107;-93
2021/06/02 08:23:23;;;;;;;4.70;1.25;;;30.60;42.50;;;;;;5016427;28;20490;-92
2021/06/02 08:25:50;;;;;;;5.80;1.75;;;31.90;43.20;;;;;;5015935;28;20049;-92
2021/06/02 08:28:20;;;;;;;2.83;1.48;;;33.20;41.00;;;;;;5016259;28;20461;-91
2021/06/02 08:30:47;;;;;;;2.17;1.40;;;33.50;41.10;;;;;;5016263;28;20084;-88
2021/06/02 08:33:14;;;;;;;8.98;1.80;;;33.30;40.40;;;;;;5016642;28;20144;-90
2021/06/02 08:35:41;;;;;;;5.35;2.13;;;33.80;40.00;;;;;;5015930;28;20144;-89
2021/06/02 08:38:07;;;;;;;3.08;1.10;;;34.90;39.80;;;;;;5016192;28;20059;-90
2021/06/02 08:40:35;;;;;;;2.50;0.98;;;35.70;38.40;;;;;;5016325;28;20049;-91
2021/06/02 08:43:01;;;;;;;4.65;1.42;;;37.10;37.70;;;;;;5016104;28;20049;-91
2021/06/02 08:45:28;;;;;;;3.10;1.08;;;37.30;37.70;;;;;;5016087;28;20050;-89
2021/06/02 08:47:55;;;;;;;1.33;0.98;;;38.10;36.60;;;;;;5016157;28;20108;-88
2021/06/02 08:50:22;;;;;;;3.20;1.70;;;38.50;36.90;;;;;;5015993;28;20140;-87
2021/06/02 08:52:50;;;;;;;1.20;1.10;;;38.80;37.50;;;;;;5016082;28;20046;-88
2021/06/02 08:55:20;;;;;;;3.90;1.05;;;39.30;36.70;;;;;;5015715;28;20119;-88
2021/06/02 08:57:49;;;;;;;5.55;1.20;;;40.00;35.30;;;;;;5009475;28;20050;-91
2021/06/02 09:00:20;;;;;;;1.65;1.00;;;40.20;35.00;;;;;;5005078;28;20049;-90
2021/06/02 09:02:53;;;;;;;2.22;1.05;;;39.80;35.10;;;;;;5015705;28;20056;-90
2021/06/02 09:05:21;;;;;;;2.65;1.10;;;39.50;34.60;;;;;;5016276;28;20050;-90
2021/06/02 09:07:51;;;;;;;3.70;1.00;;;38.20;35.50;;;;;;5015704;28;20049;-91
2021/06/02 09:10:19;;;;;;;3.35;1.00;;;38.00;36.30;;;;;;5015703;28;20405;-90
2021/06/02 09:13:02;;;;;;;4.15;1.40;;;37.80;36.30;;;;;;5015946;28;20060;-89
2021/06/02 09:15:34;;;;;;;2.40;1.13;;;36.50;36.50;;;;;;5015970;28;20049;-91
2021/06/02 09:18:04;;;;;;;3.97;1.50;;;35.60;37.20;;;;;;5016478;28;20060;-91
2021/06/02 09:20:37;;;;;;;2.05;1.20;;;34.30;38.10;;;;;;5017412;28;20056;-91
2021/06/02 09:23:26;;;;;;;0.90;0.90;;;34.40;38.60;;;;;;5019730;28;20148;-93
2021/06/02 09:26:17;;;;;;;1.00;1.00;;;34.60;37.90;;;;;;5024581;28;20049;-91
2021/06/02 09:29:03;;;;;;;5.47;1.15;;;37.50;37.90;;;;;;5015568;28;20057;-93
2021/06/02 09:31:34;;;;;;;1.13;1.00;;;40.40;36.20;;;;;;5020509;28;20049;-88
2021/06/02 09:34:14;;;;;;;1.77;1.10;;;39.50;34.80;;;;;;5019669;28;20145;-91
2021/06/02 09:36:43;;;;;;;1.65;0.88;;;38.30;34.30;;;;;;5018523;28;20053;-89
2021/06/02 09:39:13;;;;;;;3.22;0.93;;;38.90;35.40;;;;;;5018946;28;20065;-90
2021/06/02 09:41:45;;;;;;;3.13;1.20;;;38.90;33.50;;;;;;5018953;28;20132;-91
2021/06/02 09:44:22;;;;;;;0.95;0.80;;;40.00;34.00;;;;;;5018858;28;20057;-92
2021/06/02 09:47:00;;;;;;;1.58;0.95;;;38.80;33.70;;;;;;5036648;28;20140;-92
2021/06/02 09:49:29;;;;;;;3.67;0.90;;;36.90;34.40;;;;;;5034809;28;20055;-89
2021/06/02 09:51:56;;;;;;;1.70;1.00;;;37.50;35.70;;;;;;5018857;28;20416;-88
2021/06/02 09:54:24;;;;;;;2.63;0.98;;;37.90;34.20;;;;;;5020494;28;20048;-92
2021/06/02 09:56:51;;;;;;;4.07;0.95;;;36.50;34.40;;;;;;5017850;28;20425;-93
2021/06/02 09:59:19;;;;;;;1.67;0.90;;;37.80;34.70;;;;;;5020038;28;20446;-93
2021/06/02 10:01:55;;;;;;;1.02;0.82;;;37.30;34.00;;;;;;5018528;28;20053;-93
2021/06/02 10:04:36;;;;;;;2.38;0.88;;;38.20;33.60;;;;;;5018165;28;20509;-91
2021/06/02 10:07:04;;;;;;;2.45;0.82;;;38.50;36.30;;;;;;5018755;28;20065;-92
2021/06/02 10:09:37;;;;;;;1.65;0.90;;;39.30;32.90;;;;;;5018666;28;20057;-93
2021/06/02 10:12:08;;;;;;;0.82;0.65;;;40.90;33.20;;;;;;5038052;28;20053;-92
2021/06/02 10:14:40;;;;;;;2.70;0.85;;;38.00;31.30;;;;;;5019249;28;20046;-89
2021/06/02 10:17:24;;;;;;;1.20;0.80;;;38.00;32.70;;;;;;5021596;28;20041;-92
2021/06/02 10:19:57;;;;;;;1.05;0.75;;;38.00;33.90;;;;;;5022802;28;20477;-90
2021/06/02 10:22:29;;;;;;;4.00;1.30;;;38.10;34.60;;;;;;5017958;28;20053;-92
2021/06/02 10:24:58;;;;;;;2.05;0.80;;;38.60;32.60;;;;;;5017236;28;20148;-91
2021/06/02 10:27:26;;;;;;;1.77;1.00;;;40.20;31.70;;;;;;5016703;28;20045;-90
2021/06/02 10:29:53;;;;;;;2.28;1.42;;;41.60;31.50;;;;;;5016854;28;20049;-90
2021/06/02 10:32:21;;;;;;;6.95;1.58;;;41.20;31.10;;;;;;5017140;28;20084;-93
2021/06/02 10:34:51;;;;;;;1.30;1.02;;;40.20;30.60;;;;;;5019150;28;20164;-92
2021/06/02 10:37:20;;;;;;;1.33;1.23;;;38.30;31.80;;;;;;5019478;28;20409;-93
2021/06/02 10:40:01;;;;;;;2.80;1.00;;;36.80;33.10;;;;;;5037032;28;20490;-92
2021/06/02 10:42:31;;;;;;;2.20;1.30;;;36.60;33.50;;;;;;5019697;28;20072;-90
2021/06/02 10:45:19;;;;;;;1.00;1.00;;;35.20;35.00;;;;;;5042598;28;20152;-92
2021/06/02 10:47:53;;;;;;;1.08;0.98;;;34.40;38.70;;;;;;5035305;28;20088;-89
2021/06/02 10:50:36;;;;;;;1.38;1.10;;;37.10;37.10;;;;;;5017980;28;20144;-90
2021/06/02 10:53:19;;;;;;;0.70;0.70;;;39.10;34.80;;;;;;5035424;28;20053;-91
2021/06/02 10:55:48;;;;;;;0.73;0.73;;;38.60;35.00;;;;;;5022420;28;20056;-90
2021/06/02 10:58:16;;;;;;;1.20;0.93;;;38.20;34.30;;;;;;5034056;28;20417;-88
2021/06/02 11:00:44;;;;;;;3.85;1.23;;;36.90;36.30;;;;;;5034276;28;20046;-90
2021/06/02 11:03:22;;;;;;;1.73;0.70;;;35.40;36.20;;;;;;5035037;28;20045;-93
2021/06/02 11:06:18;;;;;;;1.58;0.95;;;33.50;35.60;;;;;;5034317;28;20088;-91
2021/06/02 11:08:48;;;;;;;2.88;1.00;;;31.90;38.30;;;;;;5034788;28;20049;-89
2021/06/02 11:11:32;;;;;;;1.60;1.23;;;31.10;38.60;;;;;;5034547;28;20120;-90
2021/06/02 11:16:47;;;;;;;0.80;0.80;;;33.80;39.00;;;;;;5034633;28;20389;-91
2021/06/02 11:19:19;;;;;;;1.30;0.80;;;35.90;36.60;;;;;;5034165;28;20061;-90
2021/06/02 11:21:52;;;;;;;1.55;1.00;;;36.50;35.40;;;;;;5034089;28;20785;-90
2021/06/02 11:24:36;;;;;;;;;;;36.60;36.40;;;;;;5034171;28;20053;-89
2021/06/02 11:27:12;;;;;;;1.38;1.10;;;37.80;37.00;;;;;;5034159;28;19932;-90
2021/06/02 11:29:48;;;;;;;1.60;0.75;;;36.40;33.20;;;;;;5033710;28;20049;-90
2021/06/02 11:32:19;;;;;;;2.13;0.80;;;36.30;34.80;;;;;;5033929;28;20045;-89
2021/06/02 11:34:49;;;;;;;0.80;0.75;;;35.30;36.50;;;;;;5035988;28;20055;-89
2021/06/02 11:37:17;;;;;;;1.58;0.80;;;34.70;34.10;;;;;;5033737;28;20136;-91
2021/06/02 11:39:46;;;;;;;5.35;1.63;;;34.00;35.30;;;;;;5033555;28;20121;-89
2021/06/02 11:42:42;;;;;;;0.88;0.68;;;33.40;36.80;;;;;;5034339;28;20136;-88
2021/06/02 11:45:12;;;;;;;2.88;1.05;;;31.90;33.90;;;;;;5033431;28;20566;-93
2021/06/02 11:47:45;;;;;;;2.60;0.90;;;31.60;37.00;;;;;;5033249;28;20053;-86
2021/06/02 11:50:17;;;;;;;2.30;0.87;;;31.20;35.90;;;;;;5033606;28;20512;-86
2021/06/02 11:52:45;;;;;;;0.88;0.80;;;30.50;36.80;;;;;;5033388;28;20485;-90
2021/06/02 11:55:14;;;;;;;4.28;2.05;;;30.00;37.80;;;;;;5033964;28;20046;-86
2021/06/02 11:57:45;;;;;;;3.67;0.80;;;29.20;38.40;;;;;;5032780;28;20136;-88
2021/06/02 12:00:13;;;;;;;0.98;0.75;;;28.60;37.00;;;;;;5033509;28;20498;-88
2021/06/02 12:02:41;;;;;;;3.40;0.85;;;28.50;39.70;;;;;;5034747;28;20073;-85
2021/06/02 12:05:19;;;;;;;6.47;1.10;;;28.30;38.50;;;;;;5039092;28;20084;-89
2021/06/02 12:07:48;;;;;;;8.57;1.70;;;28.20;40.00;;;;;;5034713;28;20085;-87
2021/06/02 12:10:15;;;;;;;12.98;3.20;;;27.70;39.80;;;;;;5033052;28;20145;-87
2021/06/02 12:12:44;;;;;;;3.35;1.27;;;27.70;39.20;;;;;;5032882;28;20491;-88
2021/06/02 12:15:13;;;;;;;0.93;0.80;;;28.00;40.20;;;;;;5032813;28;20050;-87
2021/06/02 12:17:41;;;;;;;1.15;0.73;;;28.10;42.60;;;;;;5032908;28;20494;-86
2021/06/02 12:20:12;;;;;;;10.50;1.83;;;28.40;41.80;;;;;;5032937;28;20045;-85
2021/06/02 12:22:39;;;;;;;2.45;0.70;;;28.40;40.80;;;;;;5033056;28;20057;-86
2021/06/02 12:25:16;;;;;;;3.83;0.70;;;28.30;39.60;;;;;;5032932;28;20136;-88
2021/06/02 12:27:59;;;;;;;0.63;0.63;;;28.00;39.80;;;;;;5032922;28;20188;-88
2021/06/02 12:30:36;;;;;;;6.13;0.90;;;27.60;39.10;;;;;;5032984;28;20136;-91
2021/06/02 12:33:09;;;;;;;3.40;1.48;;;27.50;40.30;;;;;;5032624;28;20057;-90
2021/06/02 12:35:45;;;;;;;3.45;0.80;;;27.30;40.90;;;;;;5034025;28;20049;-91
2021/06/02 12:38:25;;;;;;;0.93;0.75;;;27.10;42.10;;;;;;5032769;28;20075;-89
2021/06/02 12:40:54;;;;;;;1.90;1.08;;;27.10;41.50;;;;;;5032537;28;20068;-90
2021/06/02 12:43:23;;;;;;;0.70;0.70;;;27.30;42.60;;;;;;5034498;28;20069;-89
2021/06/02 12:45:53;;;;;;;0.60;0.60;;;27.30;41.40;;;;;;5036072;28;20046;-87
2021/06/02 12:48:33;;;;;;;8.63;1.33;;;27.40;43.40;;;;;;5033413;28;20057;-86
2021/06/02 12:51:01;;;;;;;4.57;1.50;;;27.20;39.20;;;;;;5032792;28;20049;-89
2021/06/02 12:53:35;;;;;;;1.20;1.00;;;26.90;40.60;;;;;;5032605;28;20060;-89
2021/06/02 12:56:04;;;;;;;1.02;0.70;;;26.80;41.20;;;;;;5034819;28;20049;-90
2021/06/02 12:58:32;;;;;;;1.67;0.65;;;27.00;45.30;;;;;;5036534;28;20068;-89
2021/06/02 13:01:08;;;;;;;2.17;0.57;;;27.30;43.20;;;;;;5036366;28;20060;-88
2021/06/02 13:03:53;;;;;;;1.02;0.80;;;27.40;42.00;;;;;;5037684;28;20401;-92
2021/06/02 13:06:23;;;;;;;0.60;0.60;;;27.40;40.40;;;;;;5036341;28;20045;-90
2021/06/02 13:08:50;;;;;;;0.88;0.60;;;27.30;42.00;;;;;;5036982;28;20409;-89
2021/06/02 13:11:28;;;;;;;0.65;0.65;;;27.20;40.00;;;;;;5036328;28;20468;-90
2021/06/02 13:14:00;;;;;;;1.00;0.57;;;27.30;43.50;;;;;;5037014;28;20597;-92
2021/06/02 13:16:28;;;;;;;2.65;0.80;;;27.50;42.00;;;;;;5036847;28;20152;-92
2021/06/02 13:19:02;;;;;;;0.85;0.70;;;27.70;41.60;;;;;;5036101;28;20132;-89
2021/06/02 13:21:31;;;;;;;4.97;1.08;;;27.80;43.50;;;;;;5036954;28;20046;-89
2021/06/02 13:24:18;;;;;;;1.25;0.73;;;27.80;44.10;;;;;;5045328;28;20136;-89
2021/06/02 13:26:52;;;;;;;4.25;0.90;;;27.90;43.30;;;;;;5035762;28;20075;-88
2021/06/02 13:29:19;;;;;;;0.70;0.70;;;27.80;42.90;;;;;;5036074;28;20045;-91
2021/06/02 13:31:51;;;;;;;0.70;0.70;;;27.60;41.80;;;;;;5036034;28;20135;-88
2021/06/02 13:34:31;;;;;;;1.30;0.80;;;27.40;42.00;;;;;;5035754;28;20049;-87
2021/06/02 13:37:13;;;;;;;2.30;0.77;;;27.40;44.90;;;;;;5035838;28;20063;-89
2021/06/02 13:39:41;;;;;;;4.43;0.80;;;27.40;44.60;;;;;;5035879;28;20049;-88
2021/06/02 13:42:09;;;;;;;1.45;0.60;;;27.40;44.60;;;;;;5035712;28;20053;-90
2021/06/02 13:44:35;;;;;;;3.90;0.80;;;27.40;41.40;;;;;;5035626;28;20516;-89
2021/06/02 13:47:02;;;;;;;5.70;1.10;;;27.40;43.00;;;;;;5035512;28;20051;-89
2021/06/02 13:49:37;;;;;;;4.03;0.75;;;27.50;45.50;;;;;;5035733;28;20119;-91